Time;durP1;ratioP1;P1;durP2;ratioP2;P2;SDS_P1;SDS_P2;PMS_P1;PMS_P2;Temp;Humidity;BMP_temperature;BMP_pressure;BME280_temperature;BME280_humidity;BME280_pressure;Samples;Min_cycle;Max_cycle;Signal;HPM_P1;HPM_P2
2023/12/16 00:02:14;;;;;;;10.48;2.70;;;6.30;79.10;;;;;;5072202;28;20043;-86
2023/12/16 00:04:58;;;;;;;14.35;3.17;;;6.30;79.20;;;;;;5071976;28;20061;-86
2023/12/16 00:07:42;;;;;;;12.70;2.42;;;6.30;79.00;;;;;;5071608;28;20093;-86
2023/12/16 00:10:26;;;;;;;11.25;2.35;;;6.40;78.90;;;;;;5085445;28;20075;-86
2023/12/16 00:13:11;;;;;;;9.82;2.45;;;6.40;78.80;;;;;;5072106;28;20090;-86
2023/12/16 00:15:55;;;;;;;9.95;2.45;;;6.40;78.70;;;;;;5084652;28;20206;-86
2023/12/16 00:18:39;;;;;;;10.55;2.28;;;6.40;78.80;;;;;;5071379;28;20044;-87
2023/12/16 00:21:23;;;;;;;12.55;3.30;;;6.40;78.20;;;;;;5072157;28;20170;-86
2023/12/16 00:24:07;;;;;;;11.60;2.40;;;6.40;78.30;;;;;;5071868;28;20429;-84
2023/12/16 00:26:53;;;;;;;8.18;1.80;;;6.40;78.00;;;;;;5071095;28;20529;-84
2023/12/16 00:29:37;;;;;;;8.57;1.77;;;6.40;78.20;;;;;;5071609;28;20186;-84
2023/12/16 00:32:21;;;;;;;9.68;2.83;;;6.50;77.50;;;;;;5071508;28;20036;-84
2023/12/16 00:35:09;;;;;;;7.10;1.98;;;6.50;78.30;;;;;;5084922;28;20110;-84
2023/12/16 00:37:53;;;;;;;10.30;3.53;;;6.40;78.10;;;;;;5055981;28;20039;-84
2023/12/16 00:40:37;;;;;;;11.40;2.40;;;6.40;77.80;;;;;;5071516;28;20450;-84
2023/12/16 00:43:21;;;;;;;8.18;2.10;;;6.40;77.90;;;;;;5071722;28;20089;-84
2023/12/16 00:46:07;;;;;;;12.35;2.72;;;6.30;77.90;;;;;;5071271;28;20509;-83
2023/12/16 00:48:52;;;;;;;6.00;1.90;;;6.30;77.90;;;;;;5070181;28;20393;-83
2023/12/16 00:51:36;;;;;;;10.98;2.67;;;6.20;77.60;;;;;;5071546;28;20048;-83
2023/12/16 00:54:20;;;;;;;8.30;2.30;;;6.20;77.80;;;;;;5084404;28;20090;-83
2023/12/16 00:57:04;;;;;;;10.88;2.08;;;6.10;77.10;;;;;;5084265;28;20519;-84
2023/12/16 00:59:48;;;;;;;10.27;2.70;;;6.00;77.90;;;;;;5071059;28;20044;-84
2023/12/16 01:02:33;;;;;;;17.30;2.45;;;6.00;78.00;;;;;;5071111;28;20048;-84
2023/12/16 01:05:17;;;;;;;11.00;2.35;;;6.00;78.00;;;;;;5071491;28;20066;-83
2023/12/16 01:08:01;;;;;;;12.13;2.85;;;5.90;78.10;;;;;;5069722;28;20396;-83
2023/12/16 01:10:45;;;;;;;18.75;3.35;;;5.90;77.50;;;;;;5070746;28;20036;-85
2023/12/16 01:13:29;;;;;;;9.45;2.38;;;5.90;77.30;;;;;;5071306;28;20043;-84
2023/12/16 01:16:13;;;;;;;14.00;2.47;;;5.90;77.80;;;;;;5070894;28;20043;-84
2023/12/16 01:18:57;;;;;;;9.27;2.30;;;5.80;77.60;;;;;;5058226;28;20039;-84
2023/12/16 01:21:42;;;;;;;10.45;2.33;;;5.80;77.60;;;;;;5070884;28;20055;-83
2023/12/16 01:24:26;;;;;;;7.00;2.40;;;5.80;77.30;;;;;;5084447;28;20094;-83
2023/12/16 01:27:11;;;;;;;13.50;2.97;;;5.80;77.30;;;;;;5070789;28;20497;-84
2023/12/16 01:29:55;;;;;;;11.95;2.72;;;5.80;77.20;;;;;;5083644;28;20063;-85
2023/12/16 01:32:39;;;;;;;15.82;2.55;;;5.80;77.20;;;;;;5071029;28;20082;-84
2023/12/16 01:35:23;;;;;;;9.82;2.55;;;5.70;77.00;;;;;;5082475;28;20126;-85
2023/12/16 01:38:07;;;;;;;11.25;2.60;;;5.70;77.20;;;;;;5069811;28;20044;-86
2023/12/16 01:40:51;;;;;;;9.63;1.98;;;5.80;77.10;;;;;;5055295;28;20055;-84
2023/12/16 01:43:36;;;;;;;16.70;2.72;;;5.70;77.10;;;;;;5071113;28;20043;-84
2023/12/16 01:46:21;;;;;;;11.55;2.50;;;5.70;76.90;;;;;;5055626;28;20116;-83
2023/12/16 01:49:06;;;;;;;10.52;2.47;;;5.80;76.90;;;;;;5070308;28;20043;-85
2023/12/16 01:51:50;;;;;;;9.13;2.70;;;5.80;77.20;;;;;;5070713;28;20082;-86
2023/12/16 01:54:35;;;;;;;9.00;2.35;;;5.70;77.20;;;;;;5055380;28;20089;-84
2023/12/16 01:57:20;;;;;;;11.55;2.40;;;5.70;77.20;;;;;;5070904;28;20083;-85
2023/12/16 02:00:05;;;;;;;9.25;2.08;;;5.70;77.00;;;;;;5070357;28;20047;-84
2023/12/16 02:02:50;;;;;;;12.02;1.98;;;;;;;;;;5055370;28;20044;-85
2023/12/16 02:05:35;;;;;;;10.43;2.10;;;;;;;;;;5070752;28;20048;-84
2023/12/16 02:08:20;;;;;;;9.70;2.20;;;;;;;;;;5083637;28;20396;-85
2023/12/16 02:11:09;;;;;;;7.95;2.33;;;;;;;;;;5083480;28;20098;-85
2023/12/16 02:13:54;;;;;;;10.07;2.78;;;;;;;;;;5070328;28;20442;-85
2023/12/16 02:16:39;;;;;;;11.02;2.38;;;;;;;;;;5055197;28;20089;-84
2023/12/16 02:19:27;;;;;;;8.82;2.10;;;;;;;;;;5073558;28;20063;-84
2023/12/16 02:22:12;;;;;;;12.55;2.28;;;;;;;;;;5073489;28;20544;-84
2023/12/16 02:24:57;;;;;;;12.88;3.10;;;;;;;;;;5086751;28;20404;-86
2023/12/16 02:27:43;;;;;;;13.05;2.83;;;;;;;;;;5074304;28;20538;-84
2023/12/16 02:30:28;;;;;;;7.47;2.55;;;;;;;;;;5073665;28;20152;-85
2023/12/16 02:33:12;;;;;;;12.07;2.80;;;;;;;;;;5073359;28;20583;-84
2023/12/16 02:35:57;;;;;;;12.82;2.65;;;;;;;;;;5073717;28;20089;-86
2023/12/16 02:38:42;;;;;;;11.90;2.22;;;;;;;;;;5073385;28;20060;-84
2023/12/16 02:41:26;;;;;;;13.35;2.42;;;;;;;;;;5074007;28;20086;-85
2023/12/16 02:44:11;;;;;;;16.65;3.13;;;;;;;;;;5073171;28;20040;-84
2023/12/16 02:46:55;;;;;;;11.85;2.72;;;;;;;;;;5073813;28;20404;-85
2023/12/16 02:49:40;;;;;;;12.48;3.78;;;;;;;;;;5073826;28;20047;-84
2023/12/16 02:52:25;;;;;;;13.38;2.50;;;;;;;;;;5073515;28;20043;-84
2023/12/16 02:55:10;;;;;;;8.07;2.75;;;;;;;;;;5073164;28;20075;-84
2023/12/16 02:57:54;;;;;;;11.48;3.05;;;;;;;;;;5073486;28;20039;-84
2023/12/16 03:00:38;;;;;;;12.50;2.90;;;;;;;;;;5073477;28;20129;-84
2023/12/16 03:03:23;;;;;;;14.80;2.75;;;;;;;;;;5072966;28;20043;-84
2023/12/16 03:06:08;;;;;;;8.55;2.53;;;;;;;;;;5072807;28;20075;-84
2023/12/16 03:08:53;;;;;;;11.98;2.72;;;;;;;;;;5073401;28;20048;-84
2023/12/16 03:11:37;;;;;;;17.73;3.28;;;;;;;;;;5073218;28;20451;-84
2023/12/16 03:14:22;;;;;;;11.90;3.00;;;;;;;;;;5072554;28;20698;-84
2023/12/16 03:17:07;;;;;;;11.05;2.22;;;;;;;;;;5072671;28;20401;-84
2023/12/16 03:19:51;;;;;;;9.13;2.10;;;;;;;;;;5073100;28;20159;-84
2023/12/16 03:22:36;;;;;;;15.77;3.28;;;;;;;;;;5072953;28;20523;-84
2023/12/16 03:25:21;;;;;;;9.75;2.40;;;;;;;;;;5072601;28;20116;-84
2023/12/16 03:28:05;;;;;;;12.63;2.25;;;;;;;;;;5072582;28;20039;-86
2023/12/16 03:30:50;;;;;;;12.45;2.65;;;;;;;;;;5056772;28;20034;-84
2023/12/16 03:33:34;;;;;;;16.88;3.58;;;;;;;;;;5072868;28;20035;-84
2023/12/16 03:36:19;;;;;;;10.85;2.30;;;;;;;;;;5072449;28;20117;-84
2023/12/16 03:39:04;;;;;;;11.90;2.80;;;;;;;;;;5072735;28;20059;-84
2023/12/16 03:41:48;;;;;;;13.90;3.08;;;;;;;;;;5072705;28;20063;-84
2023/12/16 03:44:34;;;;;;;13.95;2.47;;;;;;;;;;5072671;28;20392;-84
2023/12/16 03:47:19;;;;;;;16.20;3.55;;;;;;;;;;5071952;28;20097;-84
2023/12/16 03:50:04;;;;;;;13.55;2.45;;;;;;;;;;5072730;28;20042;-83
2023/12/16 03:52:49;;;;;;;11.90;2.15;;;;;;;;;;5072370;28;20492;-84
2023/12/16 03:55:33;;;;;;;16.70;2.90;;;;;;;;;;5072264;28;20043;-84
2023/12/16 03:58:18;;;;;;;15.93;2.67;;;;;;;;;;5073162;28;20404;-84
2023/12/16 04:01:03;;;;;;;11.80;3.17;;;;;;;;;;5072234;28;20042;-84
2023/12/16 04:03:47;;;;;;;9.57;2.47;;;;;;;;;;5072413;28;20101;-83
2023/12/16 04:06:32;;;;;;;15.32;2.60;;;;;;;;;;5071422;28;20507;-84
2023/12/16 04:09:16;;;;;;;12.23;3.30;;;;;;;;;;5071404;28;20040;-85
2023/12/16 04:12:01;;;;;;;9.07;2.88;;;;;;;;;;5072243;28;20039;-84
2023/12/16 04:14:46;;;;;;;14.02;3.17;;;;;;;;;;5085086;28;20036;-83
2023/12/16 04:17:30;;;;;;;9.80;2.65;;;;;;;;;;5071414;28;20059;-84
2023/12/16 04:20:15;;;;;;;12.70;2.60;;;;;;;;;;5056576;28;20047;-84
2023/12/16 04:22:59;;;;;;;8.90;2.70;;;;;;;;;;5071681;28;20047;-84
2023/12/16 04:25:44;;;;;;;18.88;3.33;;;;;;;;;;5071988;28;20117;-84
2023/12/16 04:28:29;;;;;;;9.65;2.92;;;;;;;;;;5071253;28;20047;-83
2023/12/16 04:31:14;;;;;;;10.93;2.42;;;;;;;;;;5071568;28;20105;-86
2023/12/16 04:33:59;;;;;;;18.30;3.50;;;;;;;;;;5071885;28;20075;-84
2023/12/16 04:36:44;;;;;;;9.18;2.80;;;;;;;;;;5070683;28;20093;-84
2023/12/16 04:39:29;;;;;;;15.65;3.28;;;;;;;;;;5070954;28;20109;-84
2023/12/16 04:42:13;;;;;;;14.38;3.92;;;;;;;;;;5084556;28;20031;-84
2023/12/16 04:44:58;;;;;;;16.77;3.10;;;;;;;;;;5056529;28;20090;-84
2023/12/16 04:47:42;;;;;;;14.80;3.28;;;;;;;;;;5071484;28;20089;-84
2023/12/16 04:50:27;;;;;;;12.80;3.67;;;;;;;;;;5084368;28;20038;-84
2023/12/16 04:53:11;;;;;;;15.52;3.00;;;;;;;;;;5071545;28;20446;-84
2023/12/16 04:55:56;;;;;;;31.35;5.13;;;;;;;;;;5056290;28;20075;-84
2023/12/16 04:58:40;;;;;;;14.10;3.70;;;;;;;;;;5070579;28;20124;-84
2023/12/16 05:01:25;;;;;;;19.42;3.05;;;;;;;;;;5070685;28;20032;-84
2023/12/16 05:04:09;;;;;;;13.77;3.45;;;;;;;;;;5071341;28;20112;-84
2023/12/16 05:06:54;;;;;;;10.60;2.83;;;;;;;;;;5071160;28;20504;-84
2023/12/16 05:09:38;;;;;;;18.73;4.25;;;;;;;;;;5070517;28;20649;-84
2023/12/16 05:12:23;;;;;;;17.75;3.67;;;;;;;;;;5055737;28;20047;-85
2023/12/16 05:15:07;;;;;;;8.15;3.08;;;;;;;;;;5071179;28;20085;-84
2023/12/16 05:17:52;;;;;;;16.48;3.47;;;;;;;;;;5071040;28;20087;-84
2023/12/16 05:20:37;;;;;;;16.77;4.05;;;;;;;;;;5070809;28;20614;-84
2023/12/16 05:23:22;;;;;;;13.50;3.15;;;;;;;;;;5083929;28;20162;-85
2023/12/16 05:26:07;;;;;;;18.27;3.88;;;;;;;;;;5071316;28;20040;-83
2023/12/16 05:28:51;;;;;;;13.50;3.38;;;;;;;;;;5055910;28;20040;-84
2023/12/16 05:31:36;;;;;;;16.40;3.45;;;;;;;;;;5070389;28;20047;-84
2023/12/16 05:34:20;;;;;;;12.77;3.50;;;;;;;;;;5071261;28;20400;-84
2023/12/16 05:37:05;;;;;;;17.10;5.03;;;;;;;;;;5070200;28;20110;-84
2023/12/16 05:39:49;;;;;;;18.35;4.18;;;;;;;;;;5069587;28;20067;-85
2023/12/16 05:42:34;;;;;;;13.18;4.05;;;;;;;;;;5058157;28;20044;-84
2023/12/16 05:45:19;;;;;;;22.73;3.92;;;;;;;;;;5070391;28;20408;-85
2023/12/16 05:48:03;;;;;;;18.00;4.75;;;;;;;;;;5070371;28;20051;-84
2023/12/16 05:50:48;;;;;;;12.48;3.92;;;;;;;;;;5081309;28;20051;-85
2023/12/16 05:53:35;;;;;;;16.92;3.65;;;;;;;;;;5052500;28;20063;-84
2023/12/16 05:56:20;;;;;;;15.57;3.80;;;;;;;;;;5055406;28;20067;-85
2023/12/16 05:59:04;;;;;;;17.35;4.03;;;;;;;;;;5055309;28;20043;-85
2023/12/16 06:01:49;;;;;;;19.75;4.75;;;;;;;;;;5065145;28;20058;-85
2023/12/16 06:04:34;;;;;;;15.10;4.18;;;;;;;;;;5064630;28;20040;-85
2023/12/16 06:07:19;;;;;;;21.02;5.97;;;;;;;;;;5060652;28;20039;-85
2023/12/16 06:10:04;;;;;;;14.80;4.13;;;;;;;;;;5063545;28;20397;-85
2023/12/16 06:12:49;;;;;;;20.48;5.85;;;;;;;;;;5066445;28;20083;-85
2023/12/16 06:15:34;;;;;;;16.75;4.60;;;;;;;;;;5066220;28;20400;-85
2023/12/16 06:18:18;;;;;;;25.50;6.00;;;;;;;;;;5063643;28;20409;-85
2023/12/16 06:21:05;;;;;;;22.63;4.72;;;;;;;;;;5061655;28;20139;-85
2023/12/16 06:23:50;;;;;;;18.75;4.95;;;;;;;;;;5064057;28;20028;-85
2023/12/16 06:26:34;;;;;;;27.08;5.90;;;;;;;;;;5065392;28;20098;-85
2023/12/16 06:29:19;;;;;;;26.40;4.80;;;;;;;;;;5067618;28;20040;-86
2023/12/16 06:32:03;;;;;;;24.30;4.40;;;;;;;;;;5062231;28;20129;-85
2023/12/16 06:34:48;;;;;;;25.48;5.53;;;;;;;;;;5080849;28;20123;-85
2023/12/16 06:37:33;;;;;;;22.73;4.80;;;;;;;;;;5067736;28;20090;-86
2023/12/16 06:40:18;;;;;;;24.67;6.25;;;;;;;;;;5064487;28;20140;-84
2023/12/16 06:43:02;;;;;;;19.73;5.32;;;;;;;;;;5061462;28;20071;-85
2023/12/16 06:45:47;;;;;;;20.02;5.38;;;;;;;;;;5073027;28;20044;-84
2023/12/16 06:48:31;;;;;;;18.25;5.28;;;;;;;;;;5073939;28;20047;-85
2023/12/16 06:51:16;;;;;;;22.70;5.15;;;;;;;;;;5073609;28;20448;-85
2023/12/16 06:54:01;;;;;;;19.20;5.30;;;;;;;;;;5073342;28;20043;-86
2023/12/16 06:56:46;;;;;;;24.40;7.88;;;;;;;;;;5086465;28;20121;-85
2023/12/16 06:59:32;;;;;;;17.10;5.05;;;;;;;;;;5071831;28;20181;-86
2023/12/16 07:02:16;;;;;;;21.35;7.32;;;;;;;;;;5060915;28;20048;-85
2023/12/16 07:05:01;;;;;;;17.92;5.53;;;;;;;;;;5074841;28;20059;-85
2023/12/16 07:07:45;;;;;;;21.08;6.25;;;;;;;;;;5057851;28;20043;-86
2023/12/16 07:10:30;;;;;;;18.85;5.13;;;;;;;;;;5054672;28;20044;-85
2023/12/16 07:13:15;;;;;;;18.20;6.35;;;;;;;;;;5080588;28;20404;-85
2023/12/16 07:16:03;;;;;;;24.73;6.72;;;;;;;;;;5054387;28;20044;-85
2023/12/16 07:18:48;;;;;;;20.10;5.75;;;;;;;;;;5086015;28;20109;-85
2023/12/16 07:21:32;;;;;;;22.48;5.93;;;;;;;;;;5056685;28;20455;-83
2023/12/16 07:24:17;;;;;;;26.13;6.18;;;;;;;;;;5054291;28;20409;-84
2023/12/16 07:27:01;;;;;;;27.48;5.93;;;;;;;;;;5053855;28;20142;-84
2023/12/16 07:29:46;;;;;;;20.67;5.53;;;;;;;;;;5054758;28;20091;-86
2023/12/16 07:32:31;;;;;;;27.95;6.75;;;;;;;;;;5053780;28;20409;-85
2023/12/16 07:35:15;;;;;;;23.48;6.35;;;;;;;;;;5081128;28;20040;-86
2023/12/16 07:38:00;;;;;;;30.48;8.57;;;;;;;;;;5053376;28;20101;-83
2023/12/16 07:40:45;;;;;;;26.88;7.43;;;;;;;;;;5053257;28;20067;-85
2023/12/16 07:43:30;;;;;;;18.92;6.28;;;;;;;;;;5065380;28;20099;-88
2023/12/16 07:46:15;;;;;;;29.30;6.03;;;;;;;;;;5072013;28;20500;-87
2023/12/16 07:49:00;;;;;;;26.80;6.70;;;;;;;;;;5071710;28;20094;-86
2023/12/16 07:51:44;;;;;;;27.08;6.82;;;;;;;;;;5068344;28;20078;-86
2023/12/16 07:54:29;;;;;;;28.20;6.30;;;;;;;;;;5057022;28;20052;-86
2023/12/16 07:57:13;;;;;;;29.92;7.03;;;;;;;;;;5058012;28;20051;-84
2023/12/16 07:59:58;;;;;;;31.52;6.75;;;;;;;;;;5063750;28;20040;-85
2023/12/16 08:02:42;;;;;;;29.45;7.63;;;;;;;;;;5082529;28;20039;-86
2023/12/16 08:05:27;;;;;;;21.02;6.60;;;;;;;;;;5054635;28;20091;-85
2023/12/16 08:08:12;;;;;;;27.38;6.97;;;;;;;;;;5079310;28;20074;-85
2023/12/16 08:10:56;;;;;;;28.40;6.70;;;;;;;;;;5057586;28;20124;-85
2023/12/16 08:13:41;;;;;;;27.58;7.88;;;;;;;;;;5063466;28;20108;-85
2023/12/16 08:16:25;;;;;;;35.47;8.02;;;;;;;;;;5078963;28;20114;-84
2023/12/16 08:19:10;;;;;;;28.13;6.55;;;;;;;;;;5079584;28;20052;-85
2023/12/16 08:21:54;;;;;;;27.67;7.57;;;;;;;;;;5064565;28;20043;-85
2023/12/16 08:24:41;;;;;;;28.77;7.07;;;;;;;;;;5068804;28;20408;-85
2023/12/16 08:27:25;;;;;;;26.70;8.60;;;;;;;;;;5054796;28;20043;-85
2023/12/16 08:30:10;;;;;;;31.77;6.93;;;;;;;;;;5054201;28;20044;-86
2023/12/16 08:32:55;;;;;;;26.38;7.30;;;;;;;;;;5056262;28;20044;-84
2023/12/16 08:35:42;;;;;;;21.52;6.32;;;;;;;;;;5063955;28;20052;-88
2023/12/16 08:38:27;;;;;;;36.70;7.18;;;;;;;;;;5057064;28;20040;-84
2023/12/16 08:41:12;;;;;;;33.90;7.40;;;;;;;;;;5054434;28;20043;-83
2023/12/16 08:43:57;;;;;;;23.10;8.07;;;;;;;;;;5066748;28;20843;-87
2023/12/16 08:46:41;;;;;;;34.40;7.93;;;;;;;;;;5071764;28;20098;-87
2023/12/16 08:49:26;;;;;;;35.25;7.55;;;;;;;;;;5071446;28;20032;-85
2023/12/16 08:52:11;;;;;;;30.58;9.60;;;;;;;;;;5064447;28;20044;-85
2023/12/16 08:54:57;;;;;;;28.17;8.13;;;;;;;;;;5071053;28;20090;-82
2023/12/16 08:57:42;;;;;;;38.20;8.57;;;;;;;;;;5084462;28;20178;-84
2023/12/16 09:00:26;;;;;;;36.25;8.38;;;;;;;;;;5070982;28;20047;-84
2023/12/16 09:03:14;;;;;;;42.90;9.48;;;;;;;;;;5067312;28;20035;-84
2023/12/16 09:05:59;;;;;;;33.67;8.77;;;;;;;;;;5077832;28;20802;-83
2023/12/16 09:08:43;;;;;;;48.80;10.32;;;;;;;;;;5078465;28;20044;-81
2023/12/16 09:11:28;;;;;;;49.30;11.18;;;;;;;;;;5062011;28;20036;-83
2023/12/16 09:14:13;;;;;;;41.05;9.05;;;;;;;;;;5059299;28;20105;-83
2023/12/16 09:16:57;;;;;;;44.22;10.55;;;;;;;;;;5066324;28;20071;-83
2023/12/16 09:19:42;;;;;;;34.92;9.40;;;;;;;;;;5064521;28;20049;-83
2023/12/16 09:22:26;;;;;;;36.83;10.18;;;;;;;;;;5057430;28;20424;-83
2023/12/16 09:25:11;;;;;;;39.15;10.40;;;;;;;;;;5061705;28;20055;-83
2023/12/16 09:27:55;;;;;;;40.38;10.60;;;;;;;;;;5067358;28;20044;-83
2023/12/16 09:30:40;;;;;;;47.88;10.52;;;;;;;;;;5055494;28;20076;-83
2023/12/16 09:33:25;;;;;;;35.97;9.68;;;;;;;;;;5067726;28;20082;-83
2023/12/16 09:36:13;;;;;;;46.95;10.15;;;;;;;;;;5079420;28;20078;-83
2023/12/16 09:38:58;;;;;;;47.70;10.90;;;;;;;;;;5070537;28;20064;-83
2023/12/16 09:41:44;;;;;;;46.65;11.10;;;;;;;;;;5069337;28;20043;-84
2023/12/16 09:44:30;;;;;;;42.33;10.57;;;;;;;;;;5074282;28;20105;-84
2023/12/16 09:47:16;;;;;;;31.58;9.77;;;;;;;;;;5074421;28;20042;-84
2023/12/16 09:50:01;;;;;;;40.25;9.90;;;;;;;;;;5074726;28;20117;-84
2023/12/16 09:52:45;;;;;;;43.85;11.02;;;;;;;;;;5074519;28;20081;-84
2023/12/16 09:55:30;;;;;;;51.63;11.10;;;;;;;;;;5074958;28;20048;-83
2023/12/16 09:58:16;;;;;;;39.85;11.05;;;;;;;;;;5061650;28;20085;-83
2023/12/16 10:01:01;;;;;;;51.00;11.70;;;;;;;;;;5074513;28;20039;-84
2023/12/16 10:03:47;;;;;;;50.92;14.50;;;;;;;;;;5074825;28;20086;-83
2023/12/16 10:06:31;;;;;;;41.33;11.93;;;5.70;81.50;;;;;;5074526;28;20039;-84
2023/12/16 10:09:15;;;;;;;53.47;12.10;;;;;;;;;;5073910;28;20056;-83
2023/12/16 10:12:01;;;;;;;64.50;13.07;;;;;;;;;;5074407;28;20043;-83
2023/12/16 10:14:46;;;;;;;52.22;13.05;;;;;;;;;;5074189;28;20389;-84
2023/12/16 10:17:31;;;;;;;53.40;12.77;;;;;;;;;;5074529;28;20094;-83
2023/12/16 10:20:16;;;;;;;71.00;14.85;;;;;;;;;;5073848;28;20071;-83
2023/12/16 10:23:01;;;;;;;57.78;13.48;;;;;;;;;;5074060;28;20518;-83
2023/12/16 10:25:46;;;;;;;64.85;14.50;;;;;;;;;;5074321;28;20031;-84
2023/12/16 10:28:32;;;;;;;55.10;14.32;;;;;;;;;;5058613;28;20512;-83
2023/12/16 10:31:18;;;;;;;53.85;13.50;;;;;;;;;;5073745;28;20416;-83
2023/12/16 10:34:03;;;;;;;54.88;13.23;;;;;;;;;;5074240;28;20047;-83
2023/12/16 10:36:47;;;;;;;50.00;13.90;;;;;;;;;;5073720;28;20044;-83
2023/12/16 10:39:32;;;;;;;58.53;14.60;;;;;;;;;;5051972;28;20413;-84
2023/12/16 10:42:16;;;;;;;63.08;16.23;;;;;;;;;;5053234;28;20058;-84
2023/12/16 10:45:01;;;;;;;56.90;14.93;;;;;;;;;;5053748;28;20060;-84
2023/12/16 10:47:50;;;;;;;43.97;13.85;;;;;;;;;;5053727;28;20039;-85
2023/12/16 10:50:36;;;;;;;66.05;17.80;;;;;;;;;;5052333;28;20036;-84
2023/12/16 10:53:30;;;;;;;61.05;17.60;;;;;;;;;;5053142;28;20078;-84
2023/12/16 10:56:16;;;;;;;56.67;16.67;;;;;;;;;;5053191;28;20078;-83
2023/12/16 10:59:04;;;;;;;65.88;18.38;;;;;;;;;;5053551;28;20128;-84
2023/12/16 11:01:56;;;;;;;70.53;17.90;;;;;;;;;;5053612;28;20083;-84
2023/12/16 11:04:43;;;;;;;54.65;17.55;;;;;;;;;;5053481;28;20036;-84
2023/12/16 11:07:29;;;;;;;70.82;18.75;;;;;;;;;;5051938;28;20036;-84
2023/12/16 11:10:14;;;;;;;49.90;17.65;;;;;;;;;;5053100;28;20043;-84
2023/12/16 11:13:04;;;;;;;47.70;18.42;;;;;;;;;;5053591;28;20044;-84
2023/12/16 11:15:52;;;;;;;58.70;18.20;;;;;;;;;;5053294;28;20079;-84
2023/12/16 11:18:37;;;;;;;62.90;18.60;;;;;;;;;;5051759;28;20043;-84
2023/12/16 11:21:22;;;;;;;51.92;17.08;;;;;;;;;;5052619;28;20048;-82
2023/12/16 11:24:07;;;;;;;52.40;18.77;;;;;;;;;;5052208;28;20040;-83
2023/12/16 11:26:52;;;;;;;60.92;20.58;;;;;;;;;;5053025;28;20040;-84
2023/12/16 11:29:37;;;;;;;71.95;20.70;;;;;;;;;;5052577;28;20068;-84
2023/12/16 11:32:22;;;;;;;52.88;20.45;;;;;;;;;;5052517;28;20786;-84
2023/12/16 11:35:06;;;;;;;62.22;19.73;;;;;;;;;;5052748;28;20535;-83
2023/12/16 11:37:51;;;;;;;62.85;20.00;;;;;;;;;;5052784;28;20094;-83
2023/12/16 11:40:43;;;;;;;53.75;19.80;;;;;;;;;;5071983;28;20201;-84
2023/12/16 11:43:46;;;;;;;67.50;20.83;;;;;;;;;;5072131;28;20055;-84
2023/12/16 11:46:35;;;;;;;60.67;20.95;;;;;;;;;;5072399;28;20043;-84
2023/12/16 11:49:19;;;;;;;57.78;20.58;;;;;;;;;;5072306;28;20393;-84
2023/12/16 11:52:04;;;;;;;53.25;20.33;;;;;;;;;;5071881;28;20055;-84
2023/12/16 11:54:51;;;;;;;52.58;18.52;;;;;;;;;;5059778;28;20043;-84
2023/12/16 11:57:36;;;;;;;53.63;19.00;;;;;;;;;;5071876;28;20511;-83
2023/12/16 12:00:22;;;;;;;54.42;18.83;;;;;;;;;;5072156;28;20094;-84
2023/12/16 12:03:06;;;;;;;51.28;18.13;;;;;;;;;;5072182;28;20071;-84
2023/12/16 12:05:51;;;;;;;38.22;15.15;;;;;;;;;;5072309;28;20090;-84
2023/12/16 12:08:35;;;;;;;32.40;12.00;;;;;;;;;;5060421;28;20166;-84
2023/12/16 12:11:20;;;;;;;30.73;12.77;;;;;;;;;;5072082;28;20039;-83
2023/12/16 12:14:04;;;;;;;28.02;11.27;;;;;;;;;;5072062;28;20063;-85
2023/12/16 12:16:49;;;;;;;32.63;12.20;;;;;;;;;;5071449;28;20047;-84
2023/12/16 12:19:34;;;;;;;27.40;12.23;;;;;;;;;;5063300;28;20487;-84
2023/12/16 12:22:21;;;;;;;34.45;12.18;;;;;;;;;;5049997;28;20035;-85
2023/12/16 12:25:06;;;;;;;36.53;11.20;;;;;;;;;;5058705;28;20108;-84
2023/12/16 12:27:51;;;;;;;29.30;12.07;;;;;;;;;;5063729;28;20086;-84
2023/12/16 12:30:35;;;;;;;29.02;11.10;;;;;;;;;;5064647;28;20170;-85
2023/12/16 12:33:20;;;;;;;29.73;12.60;;;;;;;;;;5056917;28;20043;-84
2023/12/16 12:36:05;;;;;;;27.48;11.57;;;;;;;;;;5055375;28;20625;-85
2023/12/16 12:38:56;;;;;;;25.40;11.32;;;;;;;;;;5041870;28;20102;-85
2023/12/16 12:41:42;;;;;;;26.75;11.05;;;;;;;;;;5065164;28;20040;-83
2023/12/16 12:44:27;;;;;;;30.08;10.38;;;;;;;;;;5063227;28;20550;-82
2023/12/16 12:47:11;;;;;;;26.70;10.40;;;;;;;;;;5080227;28;20052;-82
2023/12/16 12:49:56;;;;;;;24.52;9.77;;;;;;;;;;5059392;28;20044;-83
2023/12/16 12:52:41;;;;;;;24.17;10.15;;;;;;;;;;5068063;28;20040;-84
2023/12/16 12:55:25;;;;;;;24.25;9.50;;;;;;;;;;5069161;28;20081;-84
2023/12/16 12:58:10;;;;;;;23.50;8.55;;;;;;;;;;5084689;28;20040;-85
2023/12/16 13:00:56;;;;;;;16.80;8.20;;;;;;;;;;5067478;28;20090;-85
2023/12/16 13:03:41;;;;;;;20.17;8.20;;;;;;;;;;5058817;28;20094;-85
2023/12/16 13:06:26;;;;;;;24.83;7.68;;;;;;;;;;5063879;28;20036;-84
2023/12/16 13:09:10;;;;;;;19.30;7.55;;;;;;;;;;5066011;28;20507;-85
2023/12/16 13:11:55;;;;;;;19.58;8.10;;;;;;;;;;5066618;28;20047;-85
2023/12/16 13:14:43;;;;;;;21.33;8.55;;;;;;;;;;5065120;28;20039;-83
2023/12/16 13:17:28;;;;;;;28.13;9.55;;;;;;;;;;5068309;28;20055;-85
2023/12/16 13:20:13;;;;;;;24.80;8.48;;;;;;;;;;5065977;28;20125;-85
2023/12/16 13:22:57;;;;;;;23.42;9.45;;;;;;;;;;5067604;28;20573;-83
2023/12/16 13:25:42;;;;;;;22.65;9.70;;;;;;;;;;5057236;28;20848;-84
2023/12/16 13:28:26;;;;;;;26.27;8.60;;;;;;;;;;5063927;28;20071;-84
2023/12/16 13:31:11;;;;;;;24.83;9.57;;;;;;;;;;5068763;28;20541;-84
2023/12/16 13:33:55;;;;;;;32.17;10.05;;;;;;;;;;5066957;28;20944;-84
2023/12/16 13:36:40;;;;;;;24.45;9.43;;;;;;;;;;5064413;28;20043;-84
2023/12/16 13:39:24;;;;;;;27.42;9.60;;;;;;;;;;5058610;28;20087;-84
2023/12/16 13:42:09;;;;;;;26.70;8.93;;;;;;;;;;5058429;28;20094;-84
2023/12/16 13:44:54;;;;;;;20.63;9.85;;;;;;;;;;5083915;28;20047;-84
2023/12/16 13:47:39;;;;;;;29.55;10.50;;;;;;;;;;5069913;28;20063;-86
2023/12/16 13:50:24;;;;;;;23.55;9.10;;;;;;;;;;5055801;28;20115;-87
2023/12/16 13:53:08;;;;;;;26.27;9.25;;;;;;;;;;5070929;28;20507;-84
2023/12/16 13:55:53;;;;;;;30.45;11.32;;;;;;;;;;5069381;28;20040;-85
2023/12/16 13:58:37;;;;;;;33.25;11.57;;;;;;;;;;5026151;28;20128;-85
2023/12/16 14:01:22;;;;;;;29.17;12.25;;;;;;;;;;5068665;28;20058;-84
2023/12/16 14:04:06;;;;;;;35.22;12.90;;;;;;;;;;5069539;28;20511;-85
2023/12/16 14:06:51;;;;;;;36.58;13.35;;;;;;;;;;5053970;28;20040;-85
2023/12/16 14:09:35;;;;;;;32.03;11.23;;;;;;;;;;5053019;28;20044;-84
2023/12/16 14:12:20;;;;;;;32.40;12.43;;;;;;;;;;5069775;28;20163;-85
2023/12/16 14:15:05;;;;;;;28.50;12.52;;;;;;;;;;5071490;28;20055;-85
2023/12/16 14:17:50;;;;;;;26.08;11.70;;;;;;;;;;5071753;28;20048;-84
2023/12/16 14:20:34;;;;;;;35.67;12.85;;;;;;;;;;5062551;28;20511;-85
2023/12/16 14:23:19;;;;;;;30.83;12.07;;;;;;;;;;5071775;28;20440;-85
2023/12/16 14:26:03;;;;;;;31.55;13.30;;;;;;;;;;5056524;28;20393;-84
2023/12/16 14:28:48;;;;;;;29.70;11.10;;;;;;;;;;5072408;28;20044;-84
2023/12/16 14:31:33;;;;;;;36.60;14.30;;;;;;;;;;5071670;28;20078;-84
2023/12/16 14:34:21;;;;;;;34.33;13.32;;;;;;;;;;5072978;28;20081;-84
2023/12/16 14:37:06;;;;;;;35.00;12.77;;;;;;;;;;5070998;28;20035;-84
2023/12/16 14:39:50;;;;;;;35.38;13.65;;;;;;;;;;5072504;28;20193;-84
2023/12/16 14:42:35;;;;;;;41.65;15.77;;;;;;;;;;5072685;28;20104;-85
2023/12/16 14:45:21;;;;;;;40.38;15.80;;;;;;;;;;5073987;28;20447;-85
2023/12/16 14:48:05;;;;;;;38.08;16.83;;;;;;;;;;5073470;28;20071;-84
2023/12/16 14:50:50;;;;;;;52.10;17.48;;;;;;;;;;5073195;28;20389;-85
2023/12/16 14:53:35;;;;;;;41.97;18.65;;;;;;;;;;5038925;28;20487;-84
2023/12/16 14:56:20;;;;;;;44.03;17.98;;;;;;;;;;5073341;28;20404;-85
2023/12/16 14:59:05;;;;;;;34.45;16.88;;;;;;;;;;5073095;28;20046;-85
2023/12/16 15:01:49;;;;;;;44.25;19.15;;;;;;;;;;5073255;28;20067;-84
2023/12/16 15:04:35;;;;;;;46.78;19.17;;;;;;;;;;5058364;28;20082;-85
2023/12/16 15:07:22;;;;;;;43.85;18.58;;;;;;;;;;5058533;28;20047;-85
2023/12/16 15:10:07;;;;;;;40.42;17.73;;;;;;;;;;5073038;28;20043;-84
2023/12/16 15:12:52;;;;;;;47.20;18.25;;;;;;;;;;5057710;28;20047;-84
2023/12/16 15:15:36;;;;;;;43.13;16.42;;;;;;;;;;5073454;28;20036;-85
2023/12/16 15:18:21;;;;;;;45.63;18.55;;;;;;;;;;5057742;28;20503;-85
2023/12/16 15:21:06;;;;;;;43.42;18.60;;;;;;;;;;5072865;28;20526;-85
2023/12/16 15:23:50;;;;;;;49.13;20.05;;;;;;;;;;5061308;28;20078;-85
2023/12/16 15:26:38;;;;;;;43.45;19.70;;;;;;;;;;5071776;28;20119;-85
2023/12/16 15:29:22;;;;;;;44.20;19.13;;;;;;;;;;5057966;28;20055;-85
2023/12/16 15:32:07;;;;;;;52.60;21.23;;;;;;;;;;5058932;28;20044;-85
2023/12/16 15:34:51;;;;;;;42.78;20.15;;;;;;;;;;5072659;28;20040;-85
2023/12/16 15:37:36;;;;;;;56.78;22.52;;;;;;;;;;5072965;28;20047;-85
2023/12/16 15:40:20;;;;;;;46.75;20.67;;;;;;;;;;5072988;28;20105;-85
2023/12/16 15:43:05;;;;;;;52.72;23.17;;;;;;;;;;5071983;28;20089;-85
2023/12/16 15:45:50;;;;;;;61.80;25.50;;;;;;;;;;5072652;28;20035;-85
2023/12/16 15:48:37;;;;;;;72.78;26.70;;;;;;;;;;5072948;28;20044;-85
2023/12/16 15:51:25;;;;;;;70.93;29.23;;;;;;;;;;5072869;28;20032;-86
2023/12/16 15:54:10;;;;;;;66.90;27.33;;;;;;;;;;5072025;28;20039;-85